ELLX/LUX METAR and TAF weather

Enter ICAO airport designator
Station Type Date Time Source
ELLX METAR 2019/06/18 16:20 UTC NOAA

ELLX 181620Z 17006KT 110V210 CAVOK 25/14 Q1013 NOSIG


Station Type Date Time Source
ELLX Decoded METAR 2019/06/18 16:20 UTC NOAA

Luxembourg / Luxembourg, Luxembourg (ELLX) 49-37N 006-13E 379M
Jun 18, 2019 - 12:20 PM EDT / 2019.06.18 1620 UTC
Wind: from the S (170 degrees) at 7 MPH (6 KT) (direction variable):0
Visibility: greater than 7 mile(s):0
Temperature: 77 F (25 C)
Dew Point: 57 F (14 C)
Relative Humidity: 50%
Pressure (altimeter): 29.91 in. Hg (1013 hPa)
ob: ELLX 181620Z 17006KT 110V210 CAVOK 25/14 Q1013 NOSIG
cycle: 16

Station Type Date Time Source
ELLX TAF 2019/06/18 12:27 UTC NOAA

TAF ELLX 181100Z 1812/1918 18010KT 9999 FEW035
TEMPO 1912/1918 25015G30KT SHRA SCT030CB PROB30
TEMPO 1914/1918 25025G40KT 3500 TSRAGR BKN030CB

Example: see airport list